Time;durP1;ratioP1;P1;durP2;ratioP2;P2;SDS_P1;SDS_P2;PMS_P1;PMS_P2;Temp;Humidity;BMP_temperature;BMP_pressure;BME280_temperature;BME280_humidity;BME280_pressure;Samples;Min_cycle;Max_cycle;Signal;HPM_P1;HPM_P2
2021/04/10 00:00:05;;;;;;;11.63;7.27;;;8.70;99.90;;;;;;4996001;28;20224;-79
2021/04/10 00:02:31;;;;;;;13.13;8.30;;;8.80;99.90;;;;;;5012481;28;20187;-79
2021/04/10 00:04:56;;;;;;;12.27;7.70;;;8.90;99.90;;;;;;4979438;28;20270;-79
2021/04/10 00:07:22;;;;;;;12.27;8.13;;;8.90;99.90;;;;;;4978652;28;20266;-78
2021/04/10 00:09:48;;;;;;;10.73;8.47;;;8.90;99.90;;;;;;4994579;28;20240;-79
2021/04/10 00:12:13;;;;;;;10.00;8.00;;;8.90;99.90;;;;;;5011407;28;20237;-79
2021/04/10 00:14:39;;;;;;;10.43;7.93;;;8.80;99.90;;;;;;4978942;28;20183;-79
2021/04/10 00:17:04;;;;;;;11.77;8.00;;;8.70;99.90;;;;;;4998349;28;20658;-79
2021/04/10 00:19:32;;;;;;;12.67;8.07;;;8.70;99.90;;;;;;4998464;28;20235;-79
2021/04/10 00:21:57;;;;;;;13.13;7.90;;;8.60;99.90;;;;;;5015092;28;20540;-79
2021/04/10 00:24:23;;;;;;;12.83;8.17;;;8.50;99.90;;;;;;4998294;28;20189;-79
2021/04/10 00:26:49;;;;;;;12.43;8.63;;;8.50;99.90;;;;;;5014918;28;20646;-79
2021/04/10 00:29:14;;;;;;;10.60;8.33;;;8.40;99.90;;;;;;4998420;28;20679;-78
2021/04/10 00:31:40;;;;;;;13.53;8.87;;;8.40;99.90;;;;;;5015938;28;20196;-79
2021/04/10 00:34:05;;;;;;;12.67;8.37;;;8.30;99.90;;;;;;4998642;28;20175;-79
2021/04/10 00:36:31;;;;;;;12.57;9.70;;;8.20;99.90;;;;;;5014554;28;20171;-79
2021/04/10 00:38:56;;;;;;;14.43;10.33;;;8.20;99.90;;;;;;5014199;28;20201;-79
2021/04/10 00:41:22;;;;;;;14.90;10.60;;;8.10;99.90;;;;;;4998061;28;20199;-79
2021/04/10 00:43:47;;;;;;;15.70;12.33;;;8.00;99.90;;;;;;4982176;28;20183;-80
2021/04/10 00:46:13;;;;;;;17.43;12.23;;;7.90;99.90;;;;;;4998412;28;20223;-79
2021/04/10 00:48:39;;;;;;;18.57;11.93;;;7.80;99.90;;;;;;4982383;28;20582;-78
2021/04/10 00:51:05;;;;;;;16.30;12.10;;;7.80;99.90;;;;;;4997369;28;20563;-77
2021/04/10 00:53:31;;;;;;;17.83;12.30;;;7.80;99.90;;;;;;4997703;28;20781;-78
2021/04/10 00:56:00;;;;;;;18.77;13.73;;;7.80;99.90;;;;;;4997617;28;20183;-78
2021/04/10 00:58:25;;;;;;;18.43;13.67;;;7.70;99.90;;;;;;4997797;28;20180;-78
2021/04/10 01:00:51;;;;;;;16.37;12.93;;;7.70;99.90;;;;;;4997344;28;20176;-77
2021/04/10 01:03:16;;;;;;;19.47;13.97;;;7.70;99.90;;;;;;4981470;28;20184;-79
2021/04/10 01:05:42;;;;;;;18.27;14.27;;;7.70;99.90;;;;;;5013607;28;20181;-79
2021/04/10 01:08:08;;;;;;;18.77;15.97;;;7.70;99.90;;;;;;5013561;28;20564;-79
2021/04/10 01:10:33;;;;;;;16.93;14.07;;;7.60;99.90;;;;;;4997044;28;20199;-79
2021/04/10 01:13:27;;;;;;;16.80;12.20;;;7.60;99.90;;;;;;4981000;28;20570;-77
2021/04/10 01:16:14;;;;;;;18.30;12.87;;;7.60;99.90;;;;;;5014785;28;20176;-79
2021/04/10 01:19:13;;;;;;;18.07;12.70;;;7.50;99.90;;;;;;4997821;28;20200;-78
2021/04/10 01:21:44;;;;;;;19.67;13.33;;;7.40;99.90;;;;;;5013263;28;20183;-79
2021/04/10 01:25:07;;;;;;;19.80;13.10;;;7.40;99.90;;;;;;4981017;28;20187;-79
2021/04/10 01:27:39;;;;;;;19.37;13.23;;;7.30;99.90;;;;;;4956302;28;20189;-79
2021/04/10 01:30:09;;;;;;;16.40;12.43;;;7.30;99.90;;;;;;4956835;28;20216;-79
2021/04/10 01:33:05;;;;;;;18.93;12.67;;;7.40;99.90;;;;;;4978902;28;20227;-79
2021/04/10 01:35:36;;;;;;;17.47;12.27;;;7.50;99.90;;;;;;4991889;28;20591;-79
2021/04/10 01:38:03;;;;;;;16.40;13.70;;;7.50;99.90;;;;;;4981010;28;20180;-78
2021/04/10 01:40:30;;;;;;;20.33;14.47;;;7.40;99.90;;;;;;4996463;28;20233;-79
2021/04/10 01:42:55;;;;;;;19.27;15.20;;;7.40;99.90;;;;;;4996980;28;20266;-79
2021/04/10 01:45:21;;;;;;;19.17;14.93;;;7.30;99.90;;;;;;4982682;28;20269;-79
2021/04/10 01:47:47;;;;;;;19.70;15.13;;;7.20;99.90;;;;;;4997719;28;20172;-80
2021/04/10 01:50:13;;;;;;;21.77;15.33;;;7.20;99.90;;;;;;4997069;28;20200;-79
2021/04/10 01:52:41;;;;;;;22.17;15.23;;;7.20;99.90;;;;;;4980015;28;20704;-78
2021/04/10 01:55:07;;;;;;;18.77;14.17;;;7.20;99.90;;;;;;4980508;28;20241;-78
2021/04/10 01:57:33;;;;;;;20.60;13.80;;;7.20;99.90;;;;;;4980130;28;20186;-79
2021/04/10 01:59:58;;;;;;;22.03;14.80;;;7.20;99.90;;;;;;4996125;28;20190;-78
2021/04/10 02:02:24;;;;;;;21.63;14.00;;;7.20;99.90;;;;;;4980220;28;20222;-78
2021/04/10 02:04:50;;;;;;;23.33;13.47;;;7.20;99.90;;;;;;4980195;28;20253;-79
2021/04/10 02:07:15;;;;;;;20.93;13.57;;;7.20;99.90;;;;;;4996207;28;20176;-79
2021/04/10 02:09:43;;;;;;;21.10;12.67;;;7.10;99.90;;;;;;4979743;28;20635;-79
2021/04/10 02:12:09;;;;;;;19.27;12.30;;;7.10;99.90;;;;;;4979960;28;20207;-79
2021/04/10 02:14:34;;;;;;;20.23;12.70;;;7.10;99.90;;;;;;4979799;28;20269;-77
2021/04/10 02:17:00;;;;;;;17.73;11.73;;;7.00;99.90;;;;;;4996209;28;20658;-80
2021/04/10 02:19:26;;;;;;;21.23;12.63;;;7.00;99.90;;;;;;4979535;28;20203;-79
2021/04/10 02:21:51;;;;;;;18.97;12.70;;;7.00;99.90;;;;;;4996076;28;20318;-79
2021/04/10 02:24:17;;;;;;;20.50;11.77;;;7.00;99.90;;;;;;4995826;28;20180;-79
2021/04/10 02:26:42;;;;;;;20.20;12.77;;;6.90;99.90;;;;;;4995839;28;20187;-79
2021/04/10 02:29:09;;;;;;;22.17;12.60;;;7.00;99.90;;;;;;4979113;28;20209;-79
2021/04/10 02:31:49;;;;;;;18.27;12.30;;;7.00;99.90;;;;;;4995898;28;20211;-79
2021/04/10 02:34:20;;;;;;;22.03;12.73;;;7.00;99.90;;;;;;5012174;28;20172;-80
2021/04/10 02:36:47;;;;;;;19.13;12.47;;;6.90;99.90;;;;;;4995080;28;20211;-79
2021/04/10 02:39:13;;;;;;;20.73;11.90;;;7.00;99.90;;;;;;4994464;28;20206;-79
2021/04/10 02:41:39;;;;;;;19.63;13.13;;;7.00;99.90;;;;;;4979109;28;20203;-79
2021/04/10 02:44:08;;;;;;;21.60;13.37;;;7.00;99.90;;;;;;4979379;28;20184;-79
2021/04/10 02:46:45;;;;;;;20.83;12.57;;;6.90;99.90;;;;;;4995669;28;20275;-78
2021/04/10 02:49:15;;;;;;;22.23;13.30;;;6.90;99.90;;;;;;4995884;28;20210;-80
2021/04/10 02:51:42;;;;;;;19.83;12.17;;;6.90;99.90;;;;;;4995761;28;20788;-78
2021/04/10 02:54:08;;;;;;;19.23;12.77;;;6.90;99.90;;;;;;4995569;28;20251;-79
2021/04/10 02:56:35;;;;;;;17.63;13.10;;;6.90;99.90;;;;;;4979116;28;20761;-78
2021/04/10 02:59:01;;;;;;;20.13;13.27;;;6.90;99.90;;;;;;4995343;28;20214;-79
2021/04/10 03:01:29;;;;;;;19.00;12.87;;;6.80;99.90;;;;;;4978980;28;20655;-79
2021/04/10 03:03:54;;;;;;;19.73;12.23;;;6.90;99.90;;;;;;5011611;28;20706;-78
2021/04/10 03:06:20;;;;;;;21.17;12.90;;;6.80;99.90;;;;;;5011513;28;20179;-78
2021/04/10 03:08:47;;;;;;;18.33;12.17;;;6.80;99.90;;;;;;5011279;28;20198;-79
2021/04/10 03:11:13;;;;;;;21.77;12.53;;;6.90;99.90;;;;;;4995072;28;20173;-79
2021/04/10 03:13:38;;;;;;;17.10;12.50;;;6.90;99.90;;;;;;4978887;28;20705;-78
2021/04/10 03:16:04;;;;;;;19.20;12.40;;;6.90;99.90;;;;;;4995052;28;20176;-79
2021/04/10 03:18:30;;;;;;;18.53;11.97;;;6.90;99.90;;;;;;5011326;28;20172;-77
2021/04/10 03:20:55;;;;;;;21.63;11.53;;;7.00;99.90;;;;;;4978530;28;20257;-79
2021/04/10 03:23:21;;;;;;;16.90;11.70;;;6.90;99.90;;;;;;4994828;28;20235;-79
2021/04/10 03:25:46;;;;;;;17.17;11.80;;;6.80;99.90;;;;;;5012495;28;20647;-79
2021/04/10 03:28:12;;;;;;;19.90;11.57;;;6.80;99.90;;;;;;4978546;28;20180;-78
2021/04/10 03:30:38;;;;;;;20.57;11.97;;;6.90;99.90;;;;;;4994779;28;20179;-79
2021/04/10 03:33:04;;;;;;;18.30;11.93;;;6.80;99.90;;;;;;4978490;28;20687;-79
2021/04/10 03:35:30;;;;;;;19.03;11.30;;;6.70;99.90;;;;;;4994811;28;20265;-79
2021/04/10 03:37:56;;;;;;;20.80;12.40;;;6.80;99.90;;;;;;4978364;28;20179;-79
2021/04/10 03:40:22;;;;;;;20.70;13.00;;;6.70;99.90;;;;;;4994518;28;20210;-79
2021/04/10 03:42:47;;;;;;;16.97;12.57;;;6.80;99.90;;;;;;4978682;28;20183;-79
2021/04/10 03:45:14;;;;;;;16.83;12.03;;;6.70;99.90;;;;;;5011147;28;20180;-78
2021/04/10 03:47:40;;;;;;;19.73;13.70;;;6.70;99.90;;;;;;4994716;28;20306;-79
2021/04/10 03:50:06;;;;;;;20.73;12.63;;;6.70;99.90;;;;;;5011877;28;20275;-79
2021/04/10 03:52:32;;;;;;;22.10;12.77;;;6.70;99.90;;;;;;5000999;28;20195;-79
2021/04/10 03:54:57;;;;;;;21.50;13.07;;;6.70;99.90;;;;;;5001415;28;20186;-77
2021/04/10 03:57:23;;;;;;;21.20;13.10;;;6.70;99.90;;;;;;4984814;28;20175;-78
2021/04/10 03:59:49;;;;;;;20.27;11.43;;;6.60;99.90;;;;;;4984645;28;20686;-78
2021/04/10 04:02:14;;;;;;;18.33;11.93;;;6.60;99.90;;;;;;4984795;28;20275;-79
2021/04/10 04:04:40;;;;;;;15.97;10.63;;;6.60;99.90;;;;;;5001029;28;20211;-78
2021/04/10 04:07:05;;;;;;;15.60;10.23;;;6.60;99.90;;;;;;4984602;28;20187;-79
2021/04/10 04:09:31;;;;;;;15.90;10.33;;;6.60;99.90;;;;;;5017188;28;20188;-77
2021/04/10 04:11:56;;;;;;;14.20;9.77;;;6.50;99.90;;;;;;4984656;28;20717;-79
2021/04/10 04:14:22;;;;;;;17.30;10.50;;;6.50;99.90;;;;;;5017312;28;20175;-79
2021/04/10 04:16:48;;;;;;;16.77;9.33;;;6.50;99.90;;;;;;4984764;28;20171;-78
2021/04/10 04:19:15;;;;;;;13.60;8.90;;;6.40;99.90;;;;;;5000630;28;20195;-78
2021/04/10 04:21:41;;;;;;;14.53;9.67;;;6.40;99.90;;;;;;4985002;28;20570;-79
2021/04/10 04:24:07;;;;;;;15.60;8.77;;;6.40;99.90;;;;;;5004374;28;20180;-79
2021/04/10 04:26:32;;;;;;;14.87;9.00;;;6.50;99.90;;;;;;4984515;28;20272;-79
2021/04/10 04:28:58;;;;;;;16.80;8.90;;;6.50;99.90;;;;;;4984458;28;20196;-79
2021/04/10 04:31:23;;;;;;;18.73;9.67;;;6.40;99.90;;;;;;5000558;28;20218;-79
2021/04/10 04:33:49;;;;;;;15.33;8.97;;;6.40;99.90;;;;;;5000697;28;20176;-79
2021/04/10 04:36:14;;;;;;;15.80;9.53;;;6.40;99.90;;;;;;4984318;28;20180;-80
2021/04/10 04:38:40;;;;;;;15.00;9.47;;;6.40;99.90;;;;;;5000735;28;20195;-79
2021/04/10 04:41:05;;;;;;;12.00;8.17;;;6.40;99.90;;;;;;4984005;28;20198;-77
2021/04/10 04:43:31;;;;;;;14.90;9.30;;;6.40;99.90;;;;;;4984427;28;20196;-79
2021/04/10 04:45:56;;;;;;;18.10;9.87;;;6.40;99.90;;;;;;5000222;28;20179;-79
2021/04/10 04:48:22;;;;;;;15.87;10.07;;;6.40;99.90;;;;;;4976344;28;20182;-79
2021/04/10 04:50:48;;;;;;;20.23;10.50;;;6.40;99.90;;;;;;4999973;28;20207;-77
2021/04/10 04:53:13;;;;;;;19.90;11.33;;;6.40;99.90;;;;;;5000074;28;20223;-78
2021/04/10 04:55:40;;;;;;;22.87;11.13;;;6.30;99.90;;;;;;5000152;28;20554;-79
2021/04/10 04:58:05;;;;;;;17.17;11.47;;;6.30;99.90;;;;;;5000558;28;20606;-79
2021/04/10 05:00:31;;;;;;;21.53;11.17;;;6.40;99.90;;;;;;4999930;28;20296;-80
2021/04/10 05:02:56;;;;;;;17.93;11.03;;;6.40;99.90;;;;;;5013065;28;20191;-79
2021/04/10 05:05:22;;;;;;;20.50;12.67;;;6.40;99.90;;;;;;5013458;28;20180;-81
2021/04/10 05:07:48;;;;;;;18.80;12.07;;;6.40;99.90;;;;;;4996933;28;20215;-81
2021/04/10 05:10:13;;;;;;;21.67;12.13;;;6.40;99.90;;;;;;4996456;28;20208;-81
2021/04/10 05:12:39;;;;;;;19.70;13.60;;;6.40;99.90;;;;;;4973026;28;20253;-81
2021/04/10 05:15:06;;;;;;;19.37;12.10;;;6.40;99.90;;;;;;4980923;28;20180;-80
2021/04/10 05:17:31;;;;;;;20.27;12.77;;;6.30;99.90;;;;;;5013541;28;20180;-79
2021/04/10 05:19:57;;;;;;;21.33;13.13;;;6.30;99.90;;;;;;4994763;28;20223;-80
2021/04/10 05:22:23;;;;;;;21.20;12.93;;;6.20;99.90;;;;;;4990882;28;20187;-79
2021/04/10 05:24:48;;;;;;;24.77;13.63;;;6.30;99.90;;;;;;4998267;28;20184;-80
2021/04/10 05:27:14;;;;;;;20.03;12.50;;;6.30;99.90;;;;;;4997723;28;20281;-80
2021/04/10 05:29:39;;;;;;;22.40;13.13;;;6.30;99.90;;;;;;4997539;28;20207;-80
2021/04/10 05:32:05;;;;;;;24.23;13.50;;;6.30;99.90;;;;;;4997317;28;20207;-77
2021/04/10 05:34:31;;;;;;;20.87;13.70;;;6.30;99.90;;;;;;5013681;28;20192;-78
2021/04/10 05:36:56;;;;;;;20.13;13.50;;;6.50;99.90;;;;;;4993949;28;20175;-80
2021/04/10 05:39:22;;;;;;;22.60;13.57;;;6.40;99.90;;;;;;5013194;28;20199;-80
2021/04/10 05:41:47;;;;;;;22.00;13.57;;;6.40;99.90;;;;;;4996613;28;20230;-80
2021/04/10 05:44:13;;;;;;;21.97;13.57;;;6.40;99.90;;;;;;4980274;28;20206;-77
2021/04/10 05:46:38;;;;;;;23.57;13.40;;;6.40;99.90;;;;;;4996482;28;20182;-80
2021/04/10 05:49:04;;;;;;;22.70;13.83;;;6.40;99.90;;;;;;4996276;28;20675;-80
2021/04/10 05:51:30;;;;;;;20.43;12.87;;;6.40;99.90;;;;;;4978990;28;20629;-80
2021/04/10 05:53:55;;;;;;;18.47;11.53;;;6.50;99.90;;;;;;4988205;28;20535;-78
2021/04/10 05:56:21;;;;;;;21.87;12.13;;;6.30;99.90;;;;;;4978276;28;20551;-80
2021/04/10 05:58:46;;;;;;;18.10;11.17;;;6.30;99.90;;;;;;4996428;28;20203;-80
2021/04/10 06:01:12;;;;;;;16.80;10.87;;;6.40;99.90;;;;;;4996790;28;20211;-79
2021/04/10 06:03:37;;;;;;;19.07;10.63;;;6.30;99.90;;;;;;4980366;28;20188;-77
2021/04/10 06:06:03;;;;;;;20.30;11.17;;;6.30;99.90;;;;;;4996627;28;20187;-79
2021/04/10 06:08:29;;;;;;;20.53;11.63;;;6.30;99.90;;;;;;4980353;28;20237;-80
2021/04/10 06:10:55;;;;;;;17.73;12.10;;;6.30;99.90;;;;;;4996798;28;20548;-80
2021/04/10 06:13:20;;;;;;;18.80;13.60;;;6.20;99.90;;;;;;4980454;28;20211;-84
2021/04/10 06:15:46;;;;;;;21.97;12.07;;;6.20;99.90;;;;;;4979727;28;20186;-85
2021/04/10 06:18:12;;;;;;;15.77;10.03;;;6.10;99.90;;;;;;4980517;28;20175;-84
2021/04/10 06:20:37;;;;;;;19.97;9.37;;;6.20;99.90;;;;;;4980206;28;20209;-89
2021/04/10 06:23:03;;;;;;;16.40;8.93;;;6.30;99.90;;;;;;4979979;28;20274;-81
2021/04/10 06:25:29;;;;;;;15.63;8.20;;;6.20;99.90;;;;;;4979714;28;20239;-79
2021/04/10 06:27:54;;;;;;;12.90;8.47;;;6.10;99.90;;;;;;5000175;28;20176;-78
2021/04/10 06:30:20;;;;;;;15.03;8.70;;;6.10;99.90;;;;;;5015213;28;20214;-77
2021/04/10 06:32:46;;;;;;;13.67;7.80;;;6.20;99.90;;;;;;5018023;28;20210;-80
2021/04/10 06:35:12;;;;;;;15.43;7.67;;;6.20;99.90;;;;;;5000572;28;20203;-82
2021/04/10 06:37:37;;;;;;;19.67;8.17;;;6.20;99.90;;;;;;5000587;28;20199;-83
2021/04/10 06:40:05;;;;;;;15.73;7.63;;;6.10;99.90;;;;;;5000186;28;20242;-81
2021/04/10 06:42:30;;;;;;;12.07;7.30;;;6.20;99.90;;;;;;4999490;28;20283;-82
2021/04/10 06:44:56;;;;;;;17.77;7.10;;;6.10;99.90;;;;;;5016790;28;20214;-82
2021/04/10 06:47:22;;;;;;;18.70;7.90;;;6.20;99.90;;;;;;4998528;28;20219;-82
2021/04/10 06:49:51;;;;;;;13.77;7.43;;;6.30;99.90;;;;;;5002646;28;20208;-80
2021/04/10 06:52:16;;;;;;;17.47;7.17;;;6.20;99.90;;;;;;4995848;28;20230;-81
2021/04/10 06:54:42;;;;;;;13.20;6.40;;;6.10;99.90;;;;;;4996193;28;20172;-84
2021/04/10 06:57:14;;;;;;;14.80;6.93;;;6.20;99.90;;;;;;4981145;28;20228;-83
2021/04/10 07:00:05;;;;;;;17.33;6.87;;;6.20;99.90;;;;;;4980488;28;20239;-80
2021/04/10 07:02:31;;;;;;;18.97;6.77;;;6.30;99.90;;;;;;5001423;28;20187;-80
2021/04/10 07:04:57;;;;;;;16.90;8.00;;;6.20;99.90;;;;;;4998646;28;20179;-77
2021/04/10 07:07:23;;;;;;;15.20;7.20;;;6.10;99.90;;;;;;5014177;28;20644;-79
2021/04/10 07:09:49;;;;;;;14.03;7.50;;;6.10;99.90;;;;;;5010625;28;20206;-78
2021/04/10 07:12:15;;;;;;;16.23;7.40;;;6.20;99.90;;;;;;4999409;28;20210;-80
2021/04/10 07:14:41;;;;;;;15.70;7.93;;;6.20;99.90;;;;;;4979819;28;20183;-79
2021/04/10 07:17:06;;;;;;;12.67;7.53;;;6.20;99.90;;;;;;4999133;28;20178;-76
2021/04/10 07:19:32;;;;;;;16.40;7.20;;;6.20;99.90;;;;;;5000101;28;20211;-80
2021/04/10 07:22:08;;;;;;;15.23;6.90;;;6.20;99.90;;;;;;4999497;28;20214;-77
2021/04/10 07:24:54;;;;;;;21.27;7.67;;;6.20;99.90;;;;;;5015676;28;20167;-77
2021/04/10 07:27:24;;;;;;;15.73;7.30;;;6.20;99.90;;;;;;4984128;28;20188;-76
2021/04/10 07:29:53;;;;;;;14.47;8.10;;;6.30;99.90;;;;;;4976659;28;20746;-77
2021/04/10 07:32:35;;;;;;;17.87;7.13;;;6.40;99.90;;;;;;4995611;28;20234;-75
2021/04/10 07:35:12;;;;;;;17.53;7.33;;;6.40;99.90;;;;;;4992162;28;20190;-77
2021/04/10 07:37:41;;;;;;;15.20;7.67;;;6.40;99.90;;;;;;4976109;28;20226;-76
2021/04/10 07:40:09;;;;;;;18.93;7.50;;;6.40;99.90;;;;;;5008155;28;20200;-77
2021/04/10 07:42:39;;;;;;;15.40;7.00;;;6.40;99.90;;;;;;5007820;28;20184;-77
2021/04/10 07:45:06;;;;;;;17.57;7.40;;;6.40;99.90;;;;;;4991675;28;20180;-77
2021/04/10 07:47:38;;;;;;;19.10;7.83;;;6.40;99.90;;;;;;5011037;28;20191;-76
2021/04/10 07:50:23;;;;;;;14.03;6.80;;;6.40;99.90;;;;;;5011257;28;20289;-79
2021/04/10 07:52:49;;;;;;;19.60;7.43;;;6.30;99.90;;;;;;5010762;28;20214;-77
2021/04/10 07:55:40;;;;;;;15.40;6.87;;;6.40;99.90;;;;;;4980112;28;20187;-75
2021/04/10 07:58:33;;;;;;;18.17;7.50;;;6.40;99.90;;;;;;4975708;28;20191;-77
2021/04/10 08:01:09;;;;;;;15.60;7.77;;;6.30;99.90;;;;;;5000726;28;20173;-76
2021/04/10 08:03:36;;;;;;;16.53;7.27;;;6.30;99.90;;;;;;5002245;28;20167;-76
2021/04/10 08:06:08;;;;;;;16.73;7.17;;;6.40;99.90;;;;;;5015219;28;20182;-75
2021/04/10 08:08:44;;;;;;;16.63;7.20;;;6.30;99.90;;;;;;5031650;28;20705;-75
2021/04/10 08:11:10;;;;;;;21.23;7.73;;;6.30;99.90;;;;;;5000507;28;20178;-76
2021/04/10 08:13:35;;;;;;;15.00;8.00;;;6.30;99.90;;;;;;5010542;28;20747;-76
2021/04/10 08:16:13;;;;;;;18.10;7.30;;;6.20;99.90;;;;;;5010853;28;20184;-76
2021/04/10 08:18:46;;;;;;;15.97;7.73;;;6.20;99.90;;;;;;5010961;28;20574;-76
2021/04/10 08:21:13;;;;;;;14.57;7.27;;;6.20;99.90;;;;;;5010638;28;20176;-78
2021/04/10 08:23:38;;;;;;;18.07;7.23;;;6.20;99.90;;;;;;4978348;28;20253;-78
2021/04/10 08:26:04;;;;;;;19.97;8.23;;;6.20;99.90;;;;;;4994774;28;20174;-80
2021/04/10 08:28:30;;;;;;;18.10;8.40;;;6.10;99.90;;;;;;4978181;28;20597;-79
2021/04/10 08:30:58;;;;;;;19.20;8.67;;;6.10;99.90;;;;;;4978042;28;20180;-80
2021/04/10 08:33:26;;;;;;;16.90;8.67;;;6.10;99.90;;;;;;4994588;28;20654;-80
2021/04/10 08:35:53;;;;;;;18.63;8.47;;;6.00;99.90;;;;;;4996222;28;20562;-80
2021/04/10 08:38:18;;;;;;;24.80;10.30;;;6.10;99.90;;;;;;4984475;28;20840;-78
2021/04/10 08:40:45;;;;;;;16.77;8.33;;;;;;;;;;5000474;28;20187;-80
2021/04/10 08:43:12;;;;;;;24.00;9.53;;;;;;;;;;4999419;28;20195;-79
2021/04/10 08:45:39;;;;;;;21.00;9.23;;;;;;;;;;4998451;28;20726;-79
2021/04/10 08:48:06;;;;;;;14.60;8.43;;;6.00;99.90;;;;;;4999228;28;20650;-78
2021/04/10 08:50:34;;;;;;;23.47;9.47;;;6.10;99.90;;;;;;4999241;28;20305;-79
2021/04/10 08:53:02;;;;;;;18.60;9.57;;;6.10;99.90;;;;;;4984097;28;20211;-79
2021/04/10 08:55:28;;;;;;;21.30;9.53;;;6.10;99.90;;;;;;5020134;28;20172;-81
2021/04/10 08:57:53;;;;;;;16.93;10.10;;;6.20;99.90;;;;;;4986907;28;20183;-80
2021/04/10 09:00:24;;;;;;;21.07;9.53;;;6.10;99.90;;;;;;4984894;28;20286;-78
2021/04/10 09:02:55;;;;;;;15.97;9.07;;;6.20;99.90;;;;;;4985140;28;20266;-81
2021/04/10 09:05:21;;;;;;;21.90;10.63;;;6.20;99.90;;;;;;4985160;28;20191;-79
2021/04/10 09:07:49;;;;;;;23.00;11.07;;;6.20;99.90;;;;;;4999401;28;20180;-77
2021/04/10 09:10:24;;;;;;;19.60;9.70;;;6.20;99.90;;;;;;5013772;28;20225;-76
2021/04/10 09:13:10;;;;;;;22.43;10.67;;;6.20;99.90;;;;;;5016437;28;20214;-76
2021/04/10 09:15:36;;;;;;;21.20;10.27;;;6.20;99.90;;;;;;4984520;28;20191;-77
2021/04/10 09:18:02;;;;;;;19.47;10.73;;;6.20;99.90;;;;;;5000824;28;20317;-79
2021/04/10 09:23:21;;;;;;;20.77;11.47;;;6.30;99.90;;;;;;5015768;28;20187;-77
2021/04/10 09:26:06;;;;;;;19.23;10.80;;;6.30;99.90;;;;;;5002786;28;20253;-77
2021/04/10 09:28:34;;;;;;;24.83;11.57;;;6.30;99.90;;;;;;5021401;28;20655;-78
2021/04/10 09:31:01;;;;;;;17.70;11.07;;;6.40;99.90;;;;;;4997759;28;20172;-79
2021/04/10 09:33:32;;;;;;;23.60;10.70;;;6.40;99.90;;;;;;5013441;28;20740;-77
2021/04/10 09:35:59;;;;;;;21.47;11.60;;;6.40;99.90;;;;;;5013226;28;20553;-78
2021/04/10 09:38:41;;;;;;;26.30;11.40;;;6.40;99.90;;;;;;5013516;28;20257;-77
2021/04/10 09:41:07;;;;;;;20.80;11.30;;;6.40;99.90;;;;;;5013063;28;20247;-78
2021/04/10 09:43:32;;;;;;;18.37;10.77;;;6.40;99.90;;;;;;4980287;28;20619;-77
2021/04/10 09:45:59;;;;;;;18.87;11.57;;;6.40;99.90;;;;;;4996034;28;20176;-78
2021/04/10 09:48:26;;;;;;;19.90;10.90;;;7.30;99.90;;;;;;4995381;28;20555;-79
2021/04/10 09:50:52;;;;;;;21.20;11.03;;;6.40;99.90;;;;;;4996754;28;20180;-78
2021/04/10 09:53:27;;;;;;;22.47;11.67;;;6.50;99.90;;;;;;5014274;28;20208;-78
2021/04/10 09:55:56;;;;;;;20.67;11.60;;;6.40;99.90;;;;;;4989918;28;20176;-79
2021/04/10 09:58:23;;;;;;;21.33;12.00;;;6.40;99.90;;;;;;5013015;28;20307;-79
2021/04/10 10:00:54;;;;;;;22.20;11.63;;;6.40;99.90;;;;;;4995565;28;20187;-72
2021/04/10 10:03:22;;;;;;;24.57;13.13;;;6.50;99.90;;;;;;5012123;28;20270;-76
2021/04/10 10:05:51;;;;;;;21.77;11.20;;;6.50;99.90;;;;;;4978977;28;20193;-74
2021/04/10 10:08:19;;;;;;;24.17;12.97;;;6.60;99.90;;;;;;5012706;28;20646;-75
2021/04/10 10:10:51;;;;;;;25.63;13.07;;;6.60;99.90;;;;;;4992503;28;20216;-78
2021/04/10 10:13:19;;;;;;;22.10;12.10;;;6.60;99.90;;;;;;4981394;28;20211;-78
2021/04/10 10:15:47;;;;;;;20.67;11.60;;;6.70;99.90;;;;;;4996248;28;20183;-76
2021/04/10 10:18:25;;;;;;;24.83;11.23;;;6.60;99.90;;;;;;5012242;28;20207;-80
2021/04/10 10:27:38;;;;;;;23.03;11.80;;;6.60;99.90;;;;;;5015271;28;20630;-80
2021/04/10 10:30:18;;;;;;;20.47;12.23;;;6.50;99.90;;;;;;4996987;28;20206;-82
2021/04/10 10:32:48;;;;;;;26.37;11.73;;;6.70;99.90;;;;;;4985382;28;20230;-82
2021/04/10 10:35:14;;;;;;;22.00;12.50;;;6.70;99.90;;;;;;5004367;28;20183;-83
2021/04/10 10:37:40;;;;;;;21.07;12.27;;;6.60;99.90;;;;;;4992702;28;20500;-83
2021/04/10 10:40:06;;;;;;;21.50;12.03;;;6.60;99.90;;;;;;5006655;28;20199;-82
2021/04/10 10:42:32;;;;;;;20.07;11.93;;;6.70;99.90;;;;;;5022719;28;20245;-82
2021/04/10 10:44:57;;;;;;;23.03;13.20;;;6.60;99.90;;;;;;5004705;28;20202;-84
2021/04/10 10:47:23;;;;;;;22.87;12.80;;;6.60;99.90;;;;;;4986325;28;20253;-79
2021/04/10 10:49:49;;;;;;;27.67;12.47;;;6.60;99.90;;;;;;4976183;28;20204;-79
2021/04/10 10:52:15;;;;;;;22.00;12.67;;;6.80;99.90;;;;;;4986737;28;20230;-78
2021/04/10 10:54:42;;;;;;;20.13;11.93;;;6.70;99.90;;;;;;4984645;28;20186;-78
2021/04/10 10:57:08;;;;;;;21.00;11.97;;;6.80;99.90;;;;;;4986302;28;20176;-79
2021/04/10 10:59:33;;;;;;;20.37;12.10;;;6.70;99.90;;;;;;5010818;28;20206;-80
2021/04/10 11:01:59;;;;;;;21.17;11.60;;;6.70;99.90;;;;;;4994953;28;20215;-78
2021/04/10 11:04:25;;;;;;;21.00;11.97;;;6.80;99.90;;;;;;5002168;28;20179;-77
2021/04/10 11:06:52;;;;;;;23.10;12.47;;;6.90;99.90;;;;;;5021748;28;20205;-80
2021/04/10 11:09:20;;;;;;;21.73;12.23;;;6.90;99.90;;;;;;4979371;28;20210;-79
2021/04/10 11:11:47;;;;;;;22.80;11.50;;;7.00;99.90;;;;;;4992835;28;20254;-80
2021/04/10 11:14:19;;;;;;;22.63;12.93;;;7.10;99.90;;;;;;4970663;28;20207;-78
2021/04/10 11:16:46;;;;;;;21.40;11.40;;;7.10;99.90;;;;;;4971255;28;20235;-80
2021/04/10 11:19:12;;;;;;;25.37;11.80;;;7.10;99.90;;;;;;5022308;28;20690;-79
2021/04/10 11:21:39;;;;;;;20.00;11.20;;;;;;;;;;4988311;28;20555;-80
2021/04/10 11:24:06;;;;;;;20.10;11.20;;;6.10;99.90;;;;;;5011381;28;20484;-78
2021/04/10 11:26:36;;;;;;;19.03;10.87;;;7.30;99.90;;;;;;5011370;28;20203;-77
2021/04/10 11:29:21;;;;;;;20.40;11.23;;;7.40;99.90;;;;;;4995376;28;20207;-80
2021/04/10 11:32:10;;;;;;;20.97;11.43;;;7.50;99.90;;;;;;5011590;28;20612;-79
2021/04/10 11:34:41;;;;;;;19.87;11.53;;;7.60;99.90;;;;;;5013874;28;20178;-80
2021/04/10 11:37:07;;;;;;;21.53;11.20;;;7.60;99.90;;;;;;4996644;28;20172;-82
2021/04/10 11:40:05;;;;;;;21.23;11.53;;;7.70;99.90;;;;;;4999000;28;20226;-75
2021/04/10 11:42:32;;;;;;;17.23;10.83;;;7.70;99.90;;;;;;5009130;28;20191;-77
2021/04/10 11:45:08;;;;;;;22.03;11.10;;;7.50;99.90;;;;;;5010665;28;20198;-76
2021/04/10 11:47:36;;;;;;;21.97;12.13;;;7.50;99.90;;;;;;5015983;28;20279;-77
2021/04/10 11:50:10;;;;;;;18.13;10.83;;;7.40;99.90;;;;;;5005246;28;20203;-78
2021/04/10 11:52:36;;;;;;;19.70;11.30;;;7.40;99.90;;;;;;5016277;28;20218;-77
2021/04/10 11:58:37;;;;;;;20.57;12.13;;;7.40;99.90;;;;;;5015271;28;20230;-77
2021/04/10 12:01:09;;;;;;;18.23;10.90;;;7.40;99.90;;;;;;4992630;28;20647;-76
2021/04/10 12:03:54;;;;;;;20.60;11.40;;;7.40;99.90;;;;;;4994341;28;20225;-76
2021/04/10 12:06:30;;;;;;;22.47;12.40;;;7.40;99.90;;;;;;5026879;28;20182;-75
2021/04/10 12:08:59;;;;;;;24.07;11.77;;;7.50;99.90;;;;;;4994386;28;20289;-75
2021/04/10 12:11:24;;;;;;;20.73;11.67;;;7.50;99.90;;;;;;5002055;28;20324;-76
2021/04/10 12:13:50;;;;;;;22.10;12.23;;;7.40;99.90;;;;;;4998771;28;20257;-74
2021/04/10 12:16:15;;;;;;;22.23;11.63;;;7.40;99.90;;;;;;5015707;28;20662;-81
2021/04/10 12:18:41;;;;;;;22.30;12.13;;;7.50;99.90;;;;;;5000868;28;20271;-80
2021/04/10 12:21:06;;;;;;;19.43;11.17;;;7.50;99.90;;;;;;4984804;28;20183;-79
2021/04/10 12:23:32;;;;;;;22.57;10.90;;;7.60;99.90;;;;;;4985456;28;20277;-82
2021/04/10 12:25:58;;;;;;;20.57;11.87;;;7.80;99.90;;;;;;4986097;28;20183;-80
2021/04/10 12:28:24;;;;;;;21.17;11.33;;;7.70;99.90;;;;;;4984823;28;20890;-80
2021/04/10 12:30:50;;;;;;;18.43;11.73;;;7.70;99.90;;;;;;4986148;28;20313;-82
2021/04/10 12:33:15;;;;;;;25.27;13.30;;;7.60;99.90;;;;;;4983684;28;20686;-80
2021/04/10 12:35:41;;;;;;;23.13;11.83;;;7.70;99.90;;;;;;4984073;28;20187;-78
2021/04/10 12:38:07;;;;;;;25.07;11.83;;;7.70;99.90;;;;;;4999468;28;20187;-77
2021/04/10 12:40:32;;;;;;;21.03;12.07;;;7.70;99.90;;;;;;5009886;28;20301;-78
2021/04/10 12:42:58;;;;;;;23.23;11.83;;;7.70;99.90;;;;;;5019018;28;20203;-77
2021/04/10 12:45:24;;;;;;;25.00;13.00;;;7.70;99.90;;;;;;5014531;28;20191;-79
2021/04/10 12:47:49;;;;;;;23.87;12.57;;;7.80;99.90;;;;;;4997932;28;20646;-77
2021/04/10 12:50:17;;;;;;;23.63;12.70;;;7.90;99.90;;;;;;4997858;28;20199;-83
2021/04/10 12:52:43;;;;;;;21.60;13.40;;;7.90;99.90;;;;;;4998059;28;20218;-77
2021/04/10 12:55:09;;;;;;;23.30;13.40;;;8.00;99.90;;;;;;5016343;28;20178;-76
2021/04/10 12:57:34;;;;;;;22.27;13.47;;;8.00;99.90;;;;;;5014780;28;20209;-76